createdAt,value
2023-02-07T00:02:19.457Z,-4.63
2023-02-07T00:04:50.373Z,-4.72
2023-02-07T00:07:21.218Z,-4.79
2023-02-07T00:09:52.119Z,-4.84
2023-02-07T00:12:22.796Z,-4.80
2023-02-07T00:14:53.452Z,-4.74
2023-02-07T00:17:24.319Z,-4.72
2023-02-07T00:19:54.964Z,-4.76
2023-02-07T00:22:25.652Z,-4.78
2023-02-07T00:24:56.722Z,-4.77
2023-02-07T00:27:27.478Z,-4.74
2023-02-07T00:29:58.542Z,-4.73
2023-02-07T00:32:34.364Z,-4.73
2023-02-07T00:35:05.742Z,-4.72
2023-02-07T00:37:36.944Z,-4.72
2023-02-07T00:40:09.266Z,-4.74
2023-02-07T00:42:39.933Z,-4.75
2023-02-07T00:45:12.336Z,-4.79
2023-02-07T00:47:43.112Z,-4.81
2023-02-07T00:50:14.069Z,-4.84
2023-02-07T00:52:44.844Z,-4.86
2023-02-07T00:55:16.498Z,-4.87
2023-02-07T00:57:47.155Z,-4.93
2023-02-07T01:00:19.724Z,-5.02
2023-02-07T01:02:51.021Z,-5.08
2023-02-07T01:05:21.961Z,-5.12
2023-02-07T01:07:52.860Z,-5.13
2023-02-07T01:10:24.806Z,-5.11
2023-02-07T01:12:56.149Z,-5.08
2023-02-07T01:15:27.677Z,-5.07
2023-02-07T01:17:58.534Z,-5.07
2023-02-07T01:20:31.429Z,-5.06
2023-02-07T01:23:02.538Z,-5.09
2023-02-07T01:25:33.324Z,-5.14
2023-02-07T01:28:04.329Z,-5.19
2023-02-07T01:30:35.561Z,-5.23
2023-02-07T01:33:06.421Z,-5.33
2023-02-07T01:35:38.228Z,-5.42
2023-02-07T01:38:09.225Z,-5.47
2023-02-07T01:40:41.209Z,-5.50
2023-02-07T01:43:18.530Z,-5.46
2023-02-07T01:45:49.444Z,-5.42
2023-02-07T01:48:24.589Z,-5.41
2023-02-07T01:50:57.865Z,-5.49
2023-02-07T01:53:31.048Z,-5.59
2023-02-07T01:56:04.917Z,-5.61
2023-02-07T01:58:37.137Z,-5.61
2023-02-07T02:01:11.922Z,-5.57
2023-02-07T02:03:48.263Z,-5.51
2023-02-07T02:06:20.813Z,-5.46
2023-02-07T02:08:54.155Z,-5.42
2023-02-07T02:11:58.392Z,-5.39
2023-02-07T02:14:46.870Z,-5.36
2023-02-07T02:17:23.789Z,-5.38
2023-02-07T02:20:25.968Z,-5.34
2023-02-07T02:23:04.740Z,-5.35
2023-02-07T02:26:12.287Z,-5.35
2023-02-07T02:29:10.632Z,-5.38
2023-02-07T02:32:08.118Z,-5.41
2023-02-07T02:34:46.842Z,-5.48
2023-02-07T02:37:24.929Z,-5.51
2023-02-07T02:40:03.528Z,-5.60
2023-02-07T02:42:41.260Z,-5.72
2023-02-07T02:45:17.896Z,-5.84
2023-02-07T02:47:51.933Z,-5.94
2023-02-07T02:50:26.291Z,-6.00
2023-02-07T02:52:57.045Z,-5.97
2023-02-07T02:55:47.779Z,-5.93
2023-02-07T02:58:27.505Z,-5.94
2023-02-07T03:01:08.384Z,-5.95
2023-02-07T03:03:56.022Z,-5.94
2023-02-07T03:06:38.780Z,-5.91
2023-02-07T03:09:25.646Z,-5.86
2023-02-07T03:12:00.646Z,-5.81
2023-02-07T03:14:37.962Z,-5.80
2023-02-07T03:17:19.613Z,-5.80
2023-02-07T03:19:56.404Z,-5.78
2023-02-07T03:22:30.275Z,-5.76
2023-02-07T03:25:05.074Z,-5.75
2023-02-07T03:27:38.176Z,-5.78
2023-02-07T03:30:13.918Z,-5.82
2023-02-07T03:32:48.304Z,-5.89
2023-02-07T03:35:25.271Z,-5.94
2023-02-07T03:37:58.499Z,-5.94
2023-02-07T03:40:32.008Z,-5.94
2023-02-07T03:43:07.752Z,-5.92
2023-02-07T03:45:38.810Z,-5.89
2023-02-07T03:48:10.137Z,-5.89
2023-02-07T03:50:41.118Z,-5.88
2023-02-07T03:53:11.818Z,-5.87
2023-02-07T03:55:42.634Z,-5.88
2023-02-07T03:58:13.458Z,-5.88
2023-02-07T04:00:44.405Z,-5.88
2023-02-07T04:03:15.282Z,-5.90
2023-02-07T04:05:47.305Z,-5.92
2023-02-07T04:08:18.309Z,-5.94
2023-02-07T04:11:00.084Z,-5.95
2023-02-07T04:13:31.088Z,-6.06
2023-02-07T04:16:02.055Z,-6.12
2023-02-07T04:18:32.794Z,-6.19
2023-02-07T04:21:08.531Z,-6.25
2023-02-07T04:23:39.241Z,-6.28
2023-02-07T04:26:10.045Z,-6.25
2023-02-07T04:28:40.906Z,-6.26
2023-02-07T04:31:11.709Z,-6.30
2023-02-07T04:33:42.403Z,-6.31
2023-02-07T04:36:13.282Z,-6.27
2023-02-07T04:38:44.789Z,-6.21
2023-02-07T04:41:15.673Z,-6.21
2023-02-07T04:43:46.738Z,-6.18
2023-02-07T04:46:17.521Z,-6.14
2023-02-07T04:48:49.329Z,-6.12
2023-02-07T04:51:19.992Z,-6.13
2023-02-07T04:53:50.731Z,-6.15
2023-02-07T04:56:21.570Z,-6.16
2023-02-07T04:58:52.358Z,-6.16
2023-02-07T05:01:23.109Z,-6.15
2023-02-07T05:03:53.828Z,-6.15
2023-02-07T05:06:24.577Z,-6.14
2023-02-07T05:08:55.267Z,-6.13
2023-02-07T05:11:26.090Z,-6.11
2023-02-07T05:13:56.875Z,-6.09
2023-02-07T05:16:27.717Z,-6.09
2023-02-07T05:18:58.534Z,-6.11
2023-02-07T05:21:29.330Z,-6.12
2023-02-07T05:24:00.152Z,-6.11
2023-02-07T05:26:30.886Z,-6.10
2023-02-07T05:29:01.628Z,-6.08
2023-02-07T05:31:46.483Z,-6.06
2023-02-07T05:34:17.228Z,-6.01
2023-02-07T05:36:47.958Z,-5.97
2023-02-07T05:39:18.705Z,-5.99
2023-02-07T05:41:49.462Z,-5.96
2023-02-07T05:44:20.563Z,-5.91
2023-02-07T05:46:52.707Z,-5.95
2023-02-07T05:49:24.218Z,-6.00
2023-02-07T05:51:54.963Z,-6.10
2023-02-07T05:54:25.816Z,-6.22
2023-02-07T05:56:56.606Z,-6.31
2023-02-07T05:59:27.592Z,-6.38
2023-02-07T06:01:58.346Z,-6.35
2023-02-07T06:04:29.345Z,-6.41
2023-02-07T06:07:00.013Z,-6.47
2023-02-07T06:09:30.852Z,-6.48
2023-02-07T06:12:03.129Z,-6.47
2023-02-07T06:14:35.842Z,-6.42
2023-02-07T06:17:06.599Z,-6.38
2023-02-07T06:19:37.436Z,-6.37
2023-02-07T06:22:08.335Z,-6.33
2023-02-07T06:24:39.057Z,-6.28
2023-02-07T06:27:09.918Z,-6.23
2023-02-07T06:29:40.737Z,-6.22
2023-02-07T06:32:11.459Z,-6.25
2023-02-07T06:34:42.253Z,-6.29
2023-02-07T06:37:13.376Z,-6.35
2023-02-07T06:39:44.238Z,-6.42
2023-02-07T06:42:14.993Z,-6.30
2023-02-07T06:44:45.837Z,-5.42
2023-02-07T06:47:16.613Z,-4.96
2023-02-07T06:49:47.576Z,-4.64
2023-02-07T06:52:19.748Z,-4.27
2023-02-07T06:54:50.368Z,-3.53
2023-02-07T06:57:20.981Z,-2.85
2023-02-07T06:59:51.759Z,-2.48
2023-02-07T07:02:22.726Z,-2.60
2023-02-07T07:04:53.692Z,-3.02
2023-02-07T07:07:24.766Z,-3.50
2023-02-07T07:09:55.502Z,-3.90
2023-02-07T07:12:26.372Z,-4.17
2023-02-07T07:14:57.028Z,-4.33
2023-02-07T07:17:27.882Z,-4.47
2023-02-07T07:19:58.822Z,-4.57
2023-02-07T07:22:30.176Z,-4.62
2023-02-07T07:25:00.919Z,-4.62
2023-02-07T07:27:31.683Z,-4.57
2023-02-07T07:30:02.439Z,-4.51
2023-02-07T07:32:35.015Z,-4.38
2023-02-07T07:35:06.540Z,-4.18
2023-02-07T07:37:37.247Z,-4.01
2023-02-07T07:40:09.782Z,-3.79
2023-02-07T07:42:40.557Z,-3.54
2023-02-07T07:45:22.329Z,-3.28
2023-02-07T07:47:53.123Z,-3.02
2023-02-07T07:50:24.095Z,-2.78
2023-02-07T07:52:54.892Z,-2.57
2023-02-07T07:55:25.677Z,-2.39
2023-02-07T07:57:57.127Z,-2.24
2023-02-07T08:00:28.248Z,-2.10
2023-02-07T08:02:59.003Z,-1.94
2023-02-07T08:05:29.695Z,-1.76
2023-02-07T08:08:01.647Z,-1.57
2023-02-07T08:10:32.491Z,-1.42
2023-02-07T08:13:03.234Z,-1.26
2023-02-07T08:15:34.144Z,-1.10
2023-02-07T08:18:05.091Z,-0.93
2023-02-07T08:20:35.913Z,-0.77
2023-02-07T08:23:06.777Z,-0.64
2023-02-07T08:25:37.545Z,-0.63
2023-02-07T08:28:08.356Z,-0.62
2023-02-07T08:30:39.400Z,-0.54
2023-02-07T08:33:11.015Z,-0.42
2023-02-07T08:35:41.837Z,-0.29
2023-02-07T08:38:12.619Z,-0.06
2023-02-07T08:40:43.611Z,0.12
2023-02-07T08:43:15.532Z,0.17
2023-02-07T08:45:49.839Z,0.20
2023-02-07T08:48:21.013Z,0.32
2023-02-07T08:50:51.741Z,0.56
2023-02-07T08:53:22.453Z,0.78
2023-02-07T08:55:53.277Z,0.90
2023-02-07T08:58:24.178Z,1.03
2023-02-07T09:00:54.998Z,1.06
2023-02-07T09:03:25.826Z,1.05
2023-02-07T09:06:01.359Z,1.02
2023-02-07T09:08:32.338Z,0.98
2023-02-07T09:11:09.072Z,1.02
2023-02-07T09:13:40.272Z,1.09
2023-02-07T09:16:11.138Z,1.13
2023-02-07T09:18:41.898Z,1.26
2023-02-07T09:21:12.522Z,1.38
2023-02-07T09:23:43.674Z,1.50
2023-02-07T09:26:19.502Z,1.65
2023-02-07T09:28:50.203Z,1.84
2023-02-07T09:31:21.776Z,1.95
2023-02-07T09:33:52.941Z,2.08
2023-02-07T09:36:26.049Z,2.14
2023-02-07T09:38:57.815Z,2.29
2023-02-07T09:41:37.673Z,2.30
2023-02-07T09:44:15.464Z,2.28
2023-02-07T09:46:52.555Z,2.41
2023-02-07T09:49:38.371Z,2.50
2023-02-07T09:52:15.923Z,2.63
2023-02-07T09:54:50.589Z,2.69
2023-02-07T09:57:26.759Z,2.76
2023-02-07T10:00:02.737Z,2.82
2023-02-07T10:02:58.101Z,2.84
2023-02-07T10:05:35.798Z,2.81
2023-02-07T10:08:07.256Z,2.73
2023-02-07T10:10:45.376Z,2.65
2023-02-07T10:13:44.020Z,2.61
2023-02-07T10:16:30.857Z,2.48
2023-02-07T10:19:07.000Z,2.44
2023-02-07T10:21:46.863Z,2.46
2023-02-07T10:24:33.856Z,2.49
2023-02-07T10:27:10.929Z,2.61
2023-02-07T10:29:57.095Z,2.69
2023-02-07T10:32:34.636Z,2.74
2023-02-07T10:35:17.957Z,2.75
2023-02-07T10:37:52.286Z,2.70
2023-02-07T10:40:27.264Z,2.64
2023-02-07T10:43:03.336Z,2.70
2023-02-07T10:45:34.502Z,2.74
2023-02-07T10:48:10.868Z,2.78
2023-02-07T10:50:41.824Z,2.72
2023-02-07T10:53:12.812Z,2.70
2023-02-07T10:55:46.801Z,2.70
2023-02-07T10:58:24.114Z,2.72
2023-02-07T11:00:57.059Z,2.64
2023-02-07T11:03:28.243Z,2.52
2023-02-07T11:06:02.863Z,2.50
2023-02-07T11:08:36.044Z,2.56
2023-02-07T11:11:27.284Z,2.60
2023-02-07T11:14:03.206Z,2.51
2023-02-07T11:16:35.129Z,2.48
2023-02-07T11:19:08.335Z,2.52
2023-02-07T11:21:44.703Z,2.45
2023-02-07T11:24:21.165Z,2.50
2023-02-07T11:26:57.554Z,2.53
2023-02-07T11:29:30.217Z,2.52
2023-02-07T11:32:03.535Z,2.50
2023-02-07T11:34:48.835Z,2.50
2023-02-07T11:37:28.943Z,2.53
2023-02-07T11:40:18.490Z,2.54
2023-02-07T11:42:51.093Z,2.50
2023-02-07T11:45:25.800Z,2.38
2023-02-07T11:48:00.129Z,2.32
2023-02-07T11:50:33.498Z,2.34
2023-02-07T11:53:04.718Z,2.37
2023-02-07T11:55:37.892Z,2.42
2023-02-07T11:58:19.502Z,2.44
2023-02-07T12:00:50.829Z,2.50
2023-02-07T12:03:26.171Z,2.52
2023-02-07T12:06:03.057Z,2.50
2023-02-07T12:08:36.643Z,2.52
2023-02-07T12:11:13.675Z,2.53
2023-02-07T12:13:50.350Z,2.59
2023-02-07T12:16:25.748Z,2.66
2023-02-07T12:19:04.740Z,2.67
2023-02-07T12:21:43.734Z,2.65
2023-02-07T12:24:21.010Z,2.64
2023-02-07T12:26:57.177Z,2.58
2023-02-07T12:29:39.701Z,2.50
2023-02-07T12:32:16.430Z,2.46
2023-02-07T12:34:53.669Z,2.44
2023-02-07T12:37:29.598Z,2.44
2023-02-07T12:40:11.446Z,2.43
2023-02-07T12:42:45.492Z,2.40
2023-02-07T12:45:24.276Z,2.35
2023-02-07T12:47:59.840Z,2.29
2023-02-07T12:50:50.086Z,2.25
2023-02-07T12:53:38.188Z,2.20
2023-02-07T12:56:21.492Z,2.16
2023-02-07T12:59:00.854Z,2.16
2023-02-07T13:01:41.124Z,2.18
2023-02-07T13:04:38.852Z,2.19
2023-02-07T13:07:21.929Z,2.20
2023-02-07T13:10:02.126Z,2.19
2023-02-07T13:12:37.912Z,2.22
2023-02-07T13:15:17.929Z,2.20
2023-02-07T13:17:55.933Z,2.16
2023-02-07T13:20:42.361Z,2.16
2023-02-07T13:23:19.503Z,2.16
2023-02-07T13:25:53.221Z,2.15
2023-02-07T13:28:30.396Z,2.14
2023-02-07T13:31:02.818Z,2.14
2023-02-07T13:33:37.976Z,2.13
2023-02-07T13:36:14.523Z,2.12
2023-02-07T13:39:00.043Z,2.10
2023-02-07T13:41:36.166Z,2.08
2023-02-07T13:44:21.028Z,2.08
2023-02-07T13:47:15.572Z,2.03
2023-02-07T13:49:52.409Z,2.02
2023-02-07T13:52:30.999Z,2.02
2023-02-07T13:55:11.453Z,2.03
2023-02-07T13:58:02.311Z,2.04
2023-02-07T14:00:37.569Z,2.03
2023-02-07T14:03:20.641Z,2.04
2023-02-07T14:05:52.401Z,2.04
2023-02-07T14:08:26.434Z,2.04
2023-02-07T14:10:58.981Z,2.04
2023-02-07T14:13:35.215Z,2.00
2023-02-07T14:16:11.082Z,1.95
2023-02-07T14:18:48.133Z,1.89
2023-02-07T14:21:41.034Z,1.84
2023-02-07T14:24:33.317Z,1.77
2023-02-07T14:27:28.033Z,1.72
2023-02-07T14:30:20.206Z,1.67
2023-02-07T14:33:13.262Z,1.61
2023-02-07T14:36:22.504Z,1.56
2023-02-07T14:39:24.259Z,1.52
2023-02-07T14:41:55.473Z,1.49
2023-02-07T14:44:34.040Z,1.45
2023-02-07T14:47:06.902Z,1.41
2023-02-07T14:49:42.561Z,1.37
2023-02-07T14:52:16.422Z,1.31
2023-02-07T14:54:52.012Z,1.24
2023-02-07T14:57:34.164Z,1.16
2023-02-07T15:00:28.807Z,1.08
2023-02-07T15:03:03.019Z,0.98
2023-02-07T15:05:35.615Z,0.92
2023-02-07T15:08:17.500Z,0.85
2023-02-07T15:10:56.786Z,0.74
2023-02-07T15:13:31.182Z,0.74
2023-02-07T15:16:06.066Z,0.69
2023-02-07T15:18:41.076Z,0.64
2023-02-07T15:21:18.227Z,0.59
2023-02-07T15:23:54.440Z,0.56
2023-02-07T15:26:25.383Z,0.52
2023-02-07T15:29:02.087Z,0.48
2023-02-07T15:31:38.558Z,0.46
2023-02-07T15:34:16.693Z,0.42
2023-02-07T15:36:48.947Z,0.40
2023-02-07T15:39:23.070Z,0.39
2023-02-07T15:41:55.764Z,0.41
2023-02-07T15:44:30.533Z,0.42
2023-02-07T15:47:04.724Z,0.43
2023-02-07T15:49:39.728Z,0.42
2023-02-07T15:52:17.602Z,0.41
2023-02-07T15:54:51.093Z,0.40
2023-02-07T15:57:26.486Z,0.40
2023-02-07T16:00:02.597Z,0.40
2023-02-07T16:03:00.145Z,0.38
2023-02-07T16:05:34.066Z,0.37
2023-02-07T16:08:06.681Z,0.36
2023-02-07T16:10:40.043Z,0.33
2023-02-07T16:13:21.559Z,0.30
2023-02-07T16:16:00.285Z,0.28
2023-02-07T16:18:42.557Z,0.26
2023-02-07T16:21:18.622Z,0.22
2023-02-07T16:23:52.109Z,0.21
2023-02-07T16:26:27.742Z,0.16
2023-02-07T16:28:59.075Z,0.10
2023-02-07T16:31:30.158Z,0.06
2023-02-07T16:34:00.926Z,0.04
2023-02-07T16:36:32.198Z,0.01
2023-02-07T16:39:03.025Z,-0.01
2023-02-07T16:41:36.341Z,-0.03
2023-02-07T16:44:06.844Z,-0.04
2023-02-07T16:46:38.596Z,-0.07
2023-02-07T16:49:15.660Z,-0.12
2023-02-07T16:51:46.845Z,-0.16
2023-02-07T16:54:18.026Z,-0.19
2023-02-07T16:56:51.519Z,-0.24
2023-02-07T16:59:23.546Z,-0.27
2023-02-07T17:01:55.238Z,-0.30
2023-02-07T17:04:25.915Z,-0.31
2023-02-07T17:06:56.639Z,-0.34
2023-02-07T17:09:28.565Z,-0.36
2023-02-07T17:11:59.169Z,-0.39
2023-02-07T17:14:29.835Z,-0.44
2023-02-07T17:17:00.606Z,-0.46
2023-02-07T17:19:31.455Z,-0.50
2023-02-07T17:22:02.255Z,-0.55
2023-02-07T17:24:32.916Z,-0.58
2023-02-07T17:27:03.622Z,-0.60
2023-02-07T17:29:34.356Z,-0.64
2023-02-07T17:32:05.307Z,-0.67
2023-02-07T17:34:36.210Z,-0.69
2023-02-07T17:37:06.837Z,-0.73
2023-02-07T17:39:37.553Z,-0.75
2023-02-07T17:42:08.344Z,-0.78
2023-02-07T17:44:40.391Z,-0.80
2023-02-07T17:47:12.046Z,-0.82
2023-02-07T17:49:42.786Z,-0.85
2023-02-07T17:52:14.724Z,-0.89
2023-02-07T17:54:46.094Z,-0.91
2023-02-07T17:57:16.866Z,-0.93
2023-02-07T17:59:47.496Z,-0.95
2023-02-07T18:02:18.238Z,-0.95
2023-02-07T18:04:51.532Z,-0.98
2023-02-07T18:07:22.296Z,-1.03
2023-02-07T18:09:52.998Z,-1.07
2023-02-07T18:12:23.788Z,-1.09
2023-02-07T18:14:56.531Z,-1.09
2023-02-07T18:17:27.673Z,-1.12
2023-02-07T18:19:58.299Z,-1.18
2023-02-07T18:22:29.073Z,-1.22
2023-02-07T18:25:00.087Z,-1.25
2023-02-07T18:27:31.636Z,-1.27
2023-02-07T18:30:02.394Z,-1.30
2023-02-07T18:32:33.537Z,-1.37
2023-02-07T18:35:05.846Z,-1.47
2023-02-07T18:37:37.038Z,-1.55
2023-02-07T18:40:10.309Z,-1.59
2023-02-07T18:42:41.456Z,-1.60
2023-02-07T18:45:14.504Z,-1.61
2023-02-07T18:47:45.719Z,-1.67
2023-02-07T18:50:19.526Z,-1.74
2023-02-07T18:52:50.838Z,-1.80
2023-02-07T18:55:21.567Z,-1.86
2023-02-07T18:57:55.170Z,-1.93
2023-02-07T19:00:27.554Z,-1.99
2023-02-07T19:02:58.183Z,-2.00
2023-02-07T19:05:28.977Z,-2.00
2023-02-07T19:07:59.911Z,-2.00
2023-02-07T19:10:30.755Z,-2.01
2023-02-07T19:13:01.573Z,-2.00
2023-02-07T19:15:32.333Z,-1.99
2023-02-07T19:18:05.483Z,-2.00
2023-02-07T19:20:36.132Z,-2.04
2023-02-07T19:23:07.354Z,-2.05
2023-02-07T19:25:38.394Z,-2.04
2023-02-07T19:28:09.411Z,-2.05
2023-02-07T19:30:43.631Z,-2.11
2023-02-07T19:33:14.609Z,-2.13
2023-02-07T19:35:45.368Z,-2.19
2023-02-07T19:38:16.857Z,-2.25
2023-02-07T19:40:55.524Z,-2.30
2023-02-07T19:43:26.361Z,-2.36
2023-02-07T19:45:57.057Z,-2.44
2023-02-07T19:48:27.895Z,-2.50
2023-02-07T19:51:03.209Z,-2.55
2023-02-07T19:53:34.848Z,-2.57
2023-02-07T19:56:09.532Z,-2.62
2023-02-07T19:58:42.255Z,-2.66
2023-02-07T20:01:13.642Z,-2.66
2023-02-07T20:03:46.206Z,-2.65
2023-02-07T20:06:17.329Z,-2.64
2023-02-07T20:08:48.084Z,-2.64
2023-02-07T20:11:21.008Z,-2.65
2023-02-07T20:13:54.036Z,-2.66
2023-02-07T20:16:27.590Z,-2.67
2023-02-07T20:18:58.556Z,-2.69
2023-02-07T20:21:33.553Z,-2.70
2023-02-07T20:24:05.061Z,-2.71
2023-02-07T20:26:39.006Z,-2.80
2023-02-07T20:29:13.152Z,-2.91
2023-02-07T20:31:45.096Z,-2.97
2023-02-07T20:34:16.588Z,-2.96
2023-02-07T20:36:47.685Z,-2.95
2023-02-07T20:39:20.897Z,-3.01
2023-02-07T20:41:52.472Z,-3.08
2023-02-07T20:44:26.509Z,-3.15
2023-02-07T20:46:59.561Z,-3.19
2023-02-07T20:49:32.160Z,-3.24
2023-02-07T20:52:03.342Z,-3.25
2023-02-07T20:54:34.107Z,-3.22
2023-02-07T20:57:04.942Z,-3.22
2023-02-07T20:59:36.194Z,-3.23
2023-02-07T21:02:07.213Z,-3.21
2023-02-07T21:04:39.366Z,-3.23
2023-02-07T21:07:11.122Z,-3.22
2023-02-07T21:09:42.329Z,-3.21
2023-02-07T21:12:13.231Z,-3.21
2023-02-07T21:14:44.233Z,-3.21
2023-02-07T21:17:15.408Z,-3.23
2023-02-07T21:19:46.369Z,-3.28
2023-02-07T21:22:17.206Z,-3.29
2023-02-07T21:24:48.523Z,-3.27
2023-02-07T21:27:19.291Z,-3.26
2023-02-07T21:29:50.342Z,-3.26
2023-02-07T21:32:21.184Z,-3.29
2023-02-07T21:34:51.932Z,-3.30
2023-02-07T21:37:24.583Z,-3.32
2023-02-07T21:39:55.897Z,-3.34
2023-02-07T21:42:26.732Z,-3.36
2023-02-07T21:44:57.469Z,-3.38
2023-02-07T21:47:29.494Z,-3.40
2023-02-07T21:50:00.263Z,-3.48
2023-02-07T21:52:31.873Z,-3.57
2023-02-07T21:55:02.760Z,-3.69
2023-02-07T21:57:33.423Z,-3.74
2023-02-07T22:00:04.534Z,-3.72
2023-02-07T22:02:55.101Z,-3.70
2023-02-07T22:05:26.090Z,-3.68
2023-02-07T22:07:56.866Z,-3.67
2023-02-07T22:10:27.604Z,-3.67
2023-02-07T22:12:59.754Z,-3.67
2023-02-07T22:15:31.676Z,-3.68
2023-02-07T22:18:03.413Z,-3.72
2023-02-07T22:20:34.630Z,-3.78
2023-02-07T22:23:05.399Z,-3.85
2023-02-07T22:25:39.585Z,-3.94
2023-02-07T22:28:10.932Z,-3.96
2023-02-07T22:30:43.090Z,-3.96
2023-02-07T22:33:14.024Z,-3.97
2023-02-07T22:35:45.647Z,-4.03
2023-02-07T22:38:17.311Z,-4.12
2023-02-07T22:40:47.957Z,-4.20
2023-02-07T22:43:19.380Z,-4.25
2023-02-07T22:45:50.197Z,-4.29
2023-02-07T22:48:21.253Z,-4.32
2023-02-07T22:50:52.030Z,-4.32
2023-02-07T22:53:22.676Z,-4.33
2023-02-07T22:55:53.325Z,-4.33
2023-02-07T22:58:24.194Z,-4.28
2023-02-07T23:00:54.929Z,-4.23
2023-02-07T23:03:25.615Z,-4.20
2023-02-07T23:05:56.289Z,-4.21
2023-02-07T23:08:27.173Z,-4.28
2023-02-07T23:10:57.979Z,-4.34
2023-02-07T23:13:28.969Z,-4.38
2023-02-07T23:15:59.766Z,-4.39
2023-02-07T23:18:30.560Z,-4.36
2023-02-07T23:21:01.243Z,-4.37
2023-02-07T23:23:31.943Z,-4.34
2023-02-07T23:26:02.780Z,-4.33
2023-02-07T23:28:33.574Z,-4.31
2023-02-07T23:31:04.468Z,-4.32
2023-02-07T23:33:36.002Z,-4.34
2023-02-07T23:36:08.477Z,-4.36
2023-02-07T23:38:39.527Z,-4.36
2023-02-07T23:41:10.352Z,-4.34
2023-02-07T23:43:41.624Z,-4.39
2023-02-07T23:46:13.700Z,-4.48
2023-02-07T23:48:44.567Z,-4.55
2023-02-07T23:51:16.186Z,-4.58
2023-02-07T23:53:47.071Z,-4.56
2023-02-07T23:56:21.190Z,-4.52
2023-02-07T23:58:53.018Z,-4.48
